sensor_id;sensor_type;location;lat;lon;timestamp;P1;durP1;ratioP1;P2;durP2;ratioP2
10260;SDS011;5175;42.606;23.388;2023-06-22T00:01:30;12.25;;;9.10;;
10260;SDS011;5175;42.606;23.388;2023-06-22T00:03:57;9.73;;;8.75;;
10260;SDS011;5175;42.606;23.388;2023-06-22T00:06:23;8.13;;;7.38;;
10260;SDS011;5175;42.606;23.388;2023-06-22T00:08:50;8.10;;;7.40;;
10260;SDS011;5175;42.606;23.388;2023-06-22T00:11:18;8.07;;;7.28;;
10260;SDS011;5175;42.606;23.388;2023-06-22T00:13:45;8.43;;;7.65;;
10260;SDS011;5175;42.606;23.388;2023-06-22T00:16:12;8.35;;;7.55;;
10260;SDS011;5175;42.606;23.388;2023-06-22T00:18:39;8.25;;;7.50;;
10260;SDS011;5175;42.606;23.388;2023-06-22T00:21:12;8.30;;;7.60;;
10260;SDS011;5175;42.606;23.388;2023-06-22T00:23:38;8.05;;;7.35;;
10260;SDS011;5175;42.606;23.388;2023-06-22T00:26:06;8.45;;;7.30;;
10260;SDS011;5175;42.606;23.388;2023-06-22T00:28:34;8.02;;;7.35;;
10260;SDS011;5175;42.606;23.388;2023-06-22T00:31:01;8.18;;;7.30;;
10260;SDS011;5175;42.606;23.388;2023-06-22T00:33:28;9.27;;;7.80;;
10260;SDS011;5175;42.606;23.388;2023-06-22T00:35:54;8.45;;;7.60;;
10260;SDS011;5175;42.606;23.388;2023-06-22T00:38:21;8.90;;;8.00;;
10260;SDS011;5175;42.606;23.388;2023-06-22T00:40:48;8.75;;;7.95;;
10260;SDS011;5175;42.606;23.388;2023-06-22T00:43:15;8.68;;;7.82;;
10260;SDS011;5175;42.606;23.388;2023-06-22T00:45:43;8.63;;;7.82;;
10260;SDS011;5175;42.606;23.388;2023-06-22T00:48:10;9.32;;;8.52;;
10260;SDS011;5175;42.606;23.388;2023-06-22T00:50:38;9.13;;;8.35;;
10260;SDS011;5175;42.606;23.388;2023-06-22T00:53:06;9.65;;;8.65;;
10260;SDS011;5175;42.606;23.388;2023-06-22T00:55:35;9.55;;;8.57;;
10260;SDS011;5175;42.606;23.388;2023-06-22T00:58:04;9.10;;;8.30;;
10260;SDS011;5175;42.606;23.388;2023-06-22T01:00:33;9.68;;;8.73;;
10260;SDS011;5175;42.606;23.388;2023-06-22T01:03:01;10.07;;;9.18;;
10260;SDS011;5175;42.606;23.388;2023-06-22T01:05:29;11.75;;;8.50;;
10260;SDS011;5175;42.606;23.388;2023-06-22T01:08:04;9.02;;;8.23;;
10260;SDS011;5175;42.606;23.388;2023-06-22T01:10:36;9.70;;;8.60;;
10260;SDS011;5175;42.606;23.388;2023-06-22T01:13:11;8.90;;;8.20;;
10260;SDS011;5175;42.606;23.388;2023-06-22T01:15:44;8.38;;;7.68;;
10260;SDS011;5175;42.606;23.388;2023-06-22T01:18:17;9.07;;;8.27;;
10260;SDS011;5175;42.606;23.388;2023-06-22T01:20:45;8.63;;;7.93;;
10260;SDS011;5175;42.606;23.388;2023-06-22T01:23:17;9.73;;;8.75;;
10260;SDS011;5175;42.606;23.388;2023-06-22T01:25:55;10.23;;;9.23;;
10260;SDS011;5175;42.606;23.388;2023-06-22T01:28:42;10.68;;;9.63;;
10260;SDS011;5175;42.606;23.388;2023-06-22T01:31:11;11.18;;;10.13;;
10260;SDS011;5175;42.606;23.388;2023-06-22T01:33:41;10.32;;;9.32;;
10260;SDS011;5175;42.606;23.388;2023-06-22T01:36:09;9.98;;;9.18;;
10260;SDS011;5175;42.606;23.388;2023-06-22T01:38:36;11.35;;;10.25;;
10260;SDS011;5175;42.606;23.388;2023-06-22T01:41:04;10.15;;;9.15;;
10260;SDS011;5175;42.606;23.388;2023-06-22T01:43:31;10.73;;;9.73;;
10260;SDS011;5175;42.606;23.388;2023-06-22T01:46:01;11.32;;;10.10;;
10260;SDS011;5175;42.606;23.388;2023-06-22T01:48:28;11.00;;;9.95;;
10260;SDS011;5175;42.606;23.388;2023-06-22T01:50:55;10.55;;;9.50;;
10260;SDS011;5175;42.606;23.388;2023-06-22T01:53:22;9.50;;;8.50;;
10260;SDS011;5175;42.606;23.388;2023-06-22T01:55:49;8.02;;;7.32;;
10260;SDS011;5175;42.606;23.388;2023-06-22T01:58:16;9.25;;;7.85;;
10260;SDS011;5175;42.606;23.388;2023-06-22T02:00:44;8.23;;;7.40;;
10260;SDS011;5175;42.606;23.388;2023-06-22T02:03:26;8.38;;;7.55;;
10260;SDS011;5175;42.606;23.388;2023-06-22T02:05:58;8.60;;;7.80;;
10260;SDS011;5175;42.606;23.388;2023-06-22T02:08:31;9.57;;;8.57;;
10260;SDS011;5175;42.606;23.388;2023-06-22T02:11:02;8.90;;;8.00;;
10260;SDS011;5175;42.606;23.388;2023-06-22T02:13:29;9.15;;;8.25;;
10260;SDS011;5175;42.606;23.388;2023-06-22T02:15:58;8.70;;;7.90;;
10260;SDS011;5175;42.606;23.388;2023-06-22T02:18:26;9.15;;;8.35;;
10260;SDS011;5175;42.606;23.388;2023-06-22T02:20:53;9.05;;;8.20;;
10260;SDS011;5175;42.606;23.388;2023-06-22T02:23:20;8.43;;;7.72;;
10260;SDS011;5175;42.606;23.388;2023-06-22T02:25:47;9.48;;;8.57;;
10260;SDS011;5175;42.606;23.388;2023-06-22T02:28:14;10.65;;;9.65;;
10260;SDS011;5175;42.606;23.388;2023-06-22T02:30:40;9.98;;;9.07;;
10260;SDS011;5175;42.606;23.388;2023-06-22T02:33:07;10.35;;;9.45;;
10260;SDS011;5175;42.606;23.388;2023-06-22T02:35:35;10.25;;;9.25;;
10260;SDS011;5175;42.606;23.388;2023-06-22T02:38:02;10.32;;;9.43;;
10260;SDS011;5175;42.606;23.388;2023-06-22T02:40:30;10.98;;;9.85;;
10260;SDS011;5175;42.606;23.388;2023-06-22T02:42:57;9.82;;;9.02;;
10260;SDS011;5175;42.606;23.388;2023-06-22T02:45:27;10.07;;;9.18;;
10260;SDS011;5175;42.606;23.388;2023-06-22T02:47:54;10.07;;;9.18;;
10260;SDS011;5175;42.606;23.388;2023-06-22T02:50:21;9.70;;;8.80;;
10260;SDS011;5175;42.606;23.388;2023-06-22T02:52:49;9.88;;;8.98;;
10260;SDS011;5175;42.606;23.388;2023-06-22T02:55:16;10.27;;;9.38;;
10260;SDS011;5175;42.606;23.388;2023-06-22T02:57:43;9.18;;;8.35;;
10260;SDS011;5175;42.606;23.388;2023-06-22T03:00:12;10.00;;;9.10;;
10260;SDS011;5175;42.606;23.388;2023-06-22T03:02:42;9.40;;;8.50;;
10260;SDS011;5175;42.606;23.388;2023-06-22T03:05:09;9.70;;;8.80;;
10260;SDS011;5175;42.606;23.388;2023-06-22T03:07:38;9.60;;;8.70;;
10260;SDS011;5175;42.606;23.388;2023-06-22T03:10:08;10.00;;;9.18;;
10260;SDS011;5175;42.606;23.388;2023-06-22T03:12:35;10.40;;;9.50;;
10260;SDS011;5175;42.606;23.388;2023-06-22T03:15:03;11.30;;;10.27;;
10260;SDS011;5175;42.606;23.388;2023-06-22T03:17:31;12.20;;;11.07;;
10260;SDS011;5175;42.606;23.388;2023-06-22T03:19:57;12.53;;;11.43;;
10260;SDS011;5175;42.606;23.388;2023-06-22T03:22:24;12.70;;;11.57;;
10260;SDS011;5175;42.606;23.388;2023-06-22T03:24:51;12.43;;;11.33;;
10260;SDS011;5175;42.606;23.388;2023-06-22T03:27:19;12.68;;;11.48;;
10260;SDS011;5175;42.606;23.388;2023-06-22T03:29:46;11.68;;;10.55;;
10260;SDS011;5175;42.606;23.388;2023-06-22T03:32:12;10.70;;;9.70;;
10260;SDS011;5175;42.606;23.388;2023-06-22T03:34:39;10.68;;;9.70;;
10260;SDS011;5175;42.606;23.388;2023-06-22T03:37:06;11.20;;;9.63;;
10260;SDS011;5175;42.606;23.388;2023-06-22T03:39:32;10.77;;;9.88;;
10260;SDS011;5175;42.606;23.388;2023-06-22T03:41:59;10.52;;;9.63;;
10260;SDS011;5175;42.606;23.388;2023-06-22T03:44:27;9.93;;;8.93;;
10260;SDS011;5175;42.606;23.388;2023-06-22T03:46:54;10.60;;;9.70;;
10260;SDS011;5175;42.606;23.388;2023-06-22T03:49:21;10.18;;;9.27;;
10260;SDS011;5175;42.606;23.388;2023-06-22T03:51:47;12.50;;;10.60;;
10260;SDS011;5175;42.606;23.388;2023-06-22T03:54:14;12.45;;;11.35;;
10260;SDS011;5175;42.606;23.388;2023-06-22T03:56:41;11.75;;;10.75;;
10260;SDS011;5175;42.606;23.388;2023-06-22T03:59:07;12.65;;;11.30;;
10260;SDS011;5175;42.606;23.388;2023-06-22T04:01:36;12.88;;;11.68;;
10260;SDS011;5175;42.606;23.388;2023-06-22T04:04:03;12.80;;;11.60;;
10260;SDS011;5175;42.606;23.388;2023-06-22T04:06:30;13.02;;;11.82;;
10260;SDS011;5175;42.606;23.388;2023-06-22T04:08:56;12.57;;;11.48;;
10260;SDS011;5175;42.606;23.388;2023-06-22T04:11:23;12.90;;;11.77;;
10260;SDS011;5175;42.606;23.388;2023-06-22T04:13:50;13.50;;;12.20;;
10260;SDS011;5175;42.606;23.388;2023-06-22T04:16:17;13.40;;;11.85;;
10260;SDS011;5175;42.606;23.388;2023-06-22T04:18:45;13.55;;;12.18;;
10260;SDS011;5175;42.606;23.388;2023-06-22T04:21:12;13.55;;;12.30;;
10260;SDS011;5175;42.606;23.388;2023-06-22T04:23:39;13.02;;;11.82;;
10260;SDS011;5175;42.606;23.388;2023-06-22T04:26:06;13.30;;;11.93;;
10260;SDS011;5175;42.606;23.388;2023-06-22T04:28:32;14.20;;;12.35;;
10260;SDS011;5175;42.606;23.388;2023-06-22T04:31:00;13.25;;;12.05;;
10260;SDS011;5175;42.606;23.388;2023-06-22T04:33:27;12.57;;;11.50;;
10260;SDS011;5175;42.606;23.388;2023-06-22T04:35:56;13.52;;;12.32;;
10260;SDS011;5175;42.606;23.388;2023-06-22T04:38:26;12.73;;;11.27;;
10260;SDS011;5175;42.606;23.388;2023-06-22T04:40:53;13.05;;;11.75;;
10260;SDS011;5175;42.606;23.388;2023-06-22T04:43:20;12.25;;;11.02;;
10260;SDS011;5175;42.606;23.388;2023-06-22T04:45:46;12.65;;;11.35;;
10260;SDS011;5175;42.606;23.388;2023-06-22T04:48:17;12.90;;;11.57;;
10260;SDS011;5175;42.606;23.388;2023-06-22T04:50:44;11.73;;;10.75;;
10260;SDS011;5175;42.606;23.388;2023-06-22T04:53:12;13.10;;;11.82;;
10260;SDS011;5175;42.606;23.388;2023-06-22T04:55:39;13.60;;;12.32;;
10260;SDS011;5175;42.606;23.388;2023-06-22T04:58:06;12.80;;;11.60;;
10260;SDS011;5175;42.606;23.388;2023-06-22T05:00:34;13.05;;;11.95;;
10260;SDS011;5175;42.606;23.388;2023-06-22T05:03:02;12.50;;;11.38;;
10260;SDS011;5175;42.606;23.388;2023-06-22T05:05:31;13.02;;;11.90;;
10260;SDS011;5175;42.606;23.388;2023-06-22T05:08:00;12.60;;;11.48;;
10260;SDS011;5175;42.606;23.388;2023-06-22T05:10:29;13.77;;;12.02;;
10260;SDS011;5175;42.606;23.388;2023-06-22T05:12:56;12.15;;;11.00;;
10260;SDS011;5175;42.606;23.388;2023-06-22T05:15:22;12.00;;;10.90;;
10260;SDS011;5175;42.606;23.388;2023-06-22T05:17:53;12.43;;;11.07;;
10260;SDS011;5175;42.606;23.388;2023-06-22T05:20:19;11.98;;;10.88;;
10260;SDS011;5175;42.606;23.388;2023-06-22T05:22:47;11.65;;;10.55;;
10260;SDS011;5175;42.606;23.388;2023-06-22T05:25:13;12.15;;;11.00;;
10260;SDS011;5175;42.606;23.388;2023-06-22T05:27:41;12.10;;;11.00;;
10260;SDS011;5175;42.606;23.388;2023-06-22T05:30:09;11.48;;;10.50;;
10260;SDS011;5175;42.606;23.388;2023-06-22T05:32:36;11.98;;;10.95;;
10260;SDS011;5175;42.606;23.388;2023-06-22T05:35:03;12.43;;;11.32;;
10260;SDS011;5175;42.606;23.388;2023-06-22T05:37:31;13.25;;;11.90;;
10260;SDS011;5175;42.606;23.388;2023-06-22T05:39:57;13.63;;;12.50;;
10260;SDS011;5175;42.606;23.388;2023-06-22T05:42:24;14.00;;;12.70;;
10260;SDS011;5175;42.606;23.388;2023-06-22T05:44:53;14.95;;;12.93;;
10260;SDS011;5175;42.606;23.388;2023-06-22T05:47:20;15.77;;;13.00;;
10260;SDS011;5175;42.606;23.388;2023-06-22T05:49:48;15.07;;;13.55;;
10260;SDS011;5175;42.606;23.388;2023-06-22T05:52:14;14.02;;;12.63;;
10260;SDS011;5175;42.606;23.388;2023-06-22T05:54:41;14.35;;;13.05;;
10260;SDS011;5175;42.606;23.388;2023-06-22T05:57:08;14.55;;;13.25;;
10260;SDS011;5175;42.606;23.388;2023-06-22T05:59:34;14.32;;;12.75;;
10260;SDS011;5175;42.606;23.388;2023-06-22T06:02:03;14.40;;;13.00;;
10260;SDS011;5175;42.606;23.388;2023-06-22T06:04:30;13.93;;;12.57;;
10260;SDS011;5175;42.606;23.388;2023-06-22T06:06:57;14.77;;;12.65;;
10260;SDS011;5175;42.606;23.388;2023-06-22T06:09:23;17.45;;;13.18;;
10260;SDS011;5175;42.606;23.388;2023-06-22T06:11:50;19.58;;;16.63;;
10260;SDS011;5175;42.606;23.388;2023-06-22T06:14:17;15.32;;;13.80;;
10260;SDS011;5175;42.606;23.388;2023-06-22T06:16:45;14.48;;;13.05;;
10260;SDS011;5175;42.606;23.388;2023-06-22T06:19:13;13.93;;;12.55;;
10260;SDS011;5175;42.606;23.388;2023-06-22T06:21:39;13.35;;;12.02;;
10260;SDS011;5175;42.606;23.388;2023-06-22T06:24:06;14.00;;;12.60;;
10260;SDS011;5175;42.606;23.388;2023-06-22T06:26:33;17.85;;;12.95;;
10260;SDS011;5175;42.606;23.388;2023-06-22T06:29:00;13.20;;;11.93;;
10260;SDS011;5175;42.606;23.388;2023-06-22T06:31:28;12.63;;;11.38;;
10260;SDS011;5175;42.606;23.388;2023-06-22T06:33:55;12.38;;;11.27;;
10260;SDS011;5175;42.606;23.388;2023-06-22T06:36:23;13.70;;;11.95;;
10260;SDS011;5175;42.606;23.388;2023-06-22T06:38:50;12.38;;;11.10;;
10260;SDS011;5175;42.606;23.388;2023-06-22T06:41:17;11.63;;;10.50;;
10260;SDS011;5175;42.606;23.388;2023-06-22T06:43:43;12.52;;;11.23;;
10260;SDS011;5175;42.606;23.388;2023-06-22T06:46:10;13.70;;;11.18;;
10260;SDS011;5175;42.606;23.388;2023-06-22T06:48:37;13.60;;;10.80;;
10260;SDS011;5175;42.606;23.388;2023-06-22T06:51:04;11.75;;;10.55;;
10260;SDS011;5175;42.606;23.388;2023-06-22T06:53:35;12.20;;;10.80;;
10260;SDS011;5175;42.606;23.388;2023-06-22T06:56:02;15.27;;;10.73;;
10260;SDS011;5175;42.606;23.388;2023-06-22T06:58:30;11.27;;;10.25;;
10260;SDS011;5175;42.606;23.388;2023-06-22T07:00:57;11.73;;;10.63;;
10260;SDS011;5175;42.606;23.388;2023-06-22T07:03:23;14.05;;;10.32;;
10260;SDS011;5175;42.606;23.388;2023-06-22T07:05:50;10.90;;;9.95;;
10260;SDS011;5175;42.606;23.388;2023-06-22T07:08:17;11.00;;;9.57;;
10260;SDS011;5175;42.606;23.388;2023-06-22T07:10:45;10.48;;;9.43;;
10260;SDS011;5175;42.606;23.388;2023-06-22T07:13:12;10.65;;;9.68;;
10260;SDS011;5175;42.606;23.388;2023-06-22T07:15:39;12.02;;;9.43;;
10260;SDS011;5175;42.606;23.388;2023-06-22T07:18:06;10.15;;;9.30;;
10260;SDS011;5175;42.606;23.388;2023-06-22T07:20:32;11.00;;;9.50;;
10260;SDS011;5175;42.606;23.388;2023-06-22T07:22:59;11.82;;;10.63;;
10260;SDS011;5175;42.606;23.388;2023-06-22T07:25:26;11.95;;;9.90;;
10260;SDS011;5175;42.606;23.388;2023-06-22T07:28:01;11.73;;;10.13;;
10260;SDS011;5175;42.606;23.388;2023-06-22T07:30:29;11.75;;;10.55;;
10260;SDS011;5175;42.606;23.388;2023-06-22T07:32:56;11.57;;;10.48;;
10260;SDS011;5175;42.606;23.388;2023-06-22T07:35:25;12.70;;;10.07;;
10260;SDS011;5175;42.606;23.388;2023-06-22T07:37:52;12.52;;;10.63;;
10260;SDS011;5175;42.606;23.388;2023-06-22T07:40:18;11.60;;;10.60;;
10260;SDS011;5175;42.606;23.388;2023-06-22T07:42:45;11.90;;;10.70;;
10260;SDS011;5175;42.606;23.388;2023-06-22T07:45:14;11.15;;;10.05;;
10260;SDS011;5175;42.606;23.388;2023-06-22T07:47:41;11.68;;;10.10;;
10260;SDS011;5175;42.606;23.388;2023-06-22T07:50:08;12.63;;;10.55;;
10260;SDS011;5175;42.606;23.388;2023-06-22T07:52:35;11.90;;;10.70;;
10260;SDS011;5175;42.606;23.388;2023-06-22T07:55:02;12.07;;;10.35;;
10260;SDS011;5175;42.606;23.388;2023-06-22T07:57:30;12.63;;;10.82;;
10260;SDS011;5175;42.606;23.388;2023-06-22T07:59:58;12.55;;;11.32;;
10260;SDS011;5175;42.606;23.388;2023-06-22T08:02:27;12.68;;;11.23;;
10260;SDS011;5175;42.606;23.388;2023-06-22T08:04:56;12.48;;;11.23;;
10260;SDS011;5175;42.606;23.388;2023-06-22T08:07:23;12.27;;;10.93;;
10260;SDS011;5175;42.606;23.388;2023-06-22T08:09:50;14.02;;;10.90;;
10260;SDS011;5175;42.606;23.388;2023-06-22T08:12:16;12.10;;;10.77;;
10260;SDS011;5175;42.606;23.388;2023-06-22T08:14:43;12.05;;;10.80;;
10260;SDS011;5175;42.606;23.388;2023-06-22T08:17:11;12.73;;;10.70;;
10260;SDS011;5175;42.606;23.388;2023-06-22T08:19:39;11.27;;;9.50;;
10260;SDS011;5175;42.606;23.388;2023-06-22T08:22:06;12.52;;;10.63;;
10260;SDS011;5175;42.606;23.388;2023-06-22T08:24:33;10.40;;;9.45;;
10260;SDS011;5175;42.606;23.388;2023-06-22T08:27:00;11.30;;;10.20;;
10260;SDS011;5175;42.606;23.388;2023-06-22T08:29:26;13.00;;;11.05;;
10260;SDS011;5175;42.606;23.388;2023-06-22T08:31:53;14.02;;;11.73;;
10260;SDS011;5175;42.606;23.388;2023-06-22T08:34:20;12.02;;;10.50;;
10260;SDS011;5175;42.606;23.388;2023-06-22T08:36:54;12.38;;;11.07;;
10260;SDS011;5175;42.606;23.388;2023-06-22T08:39:21;13.70;;;11.60;;
10260;SDS011;5175;42.606;23.388;2023-06-22T08:41:48;11.77;;;10.50;;
10260;SDS011;5175;42.606;23.388;2023-06-22T08:44:17;13.05;;;11.15;;
10260;SDS011;5175;42.606;23.388;2023-06-22T08:46:45;12.02;;;10.68;;
10260;SDS011;5175;42.606;23.388;2023-06-22T08:49:12;16.02;;;10.73;;
10260;SDS011;5175;42.606;23.388;2023-06-22T08:51:39;12.02;;;10.85;;
10260;SDS011;5175;42.606;23.388;2023-06-22T08:54:07;11.85;;;10.60;;
10260;SDS011;5175;42.606;23.388;2023-06-22T08:56:34;11.32;;;10.23;;
10260;SDS011;5175;42.606;23.388;2023-06-22T08:59:01;12.30;;;11.27;;
10260;SDS011;5175;42.606;23.388;2023-06-22T09:01:28;12.18;;;10.85;;
10260;SDS011;5175;42.606;23.388;2023-06-22T09:03:54;11.75;;;10.45;;
10260;SDS011;5175;42.606;23.388;2023-06-22T09:06:22;11.15;;;10.02;;
10260;SDS011;5175;42.606;23.388;2023-06-22T09:08:50;13.85;;;10.68;;
10260;SDS011;5175;42.606;23.388;2023-06-22T09:11:18;11.23;;;10.23;;
10260;SDS011;5175;42.606;23.388;2023-06-22T09:13:45;11.07;;;10.07;;
10260;SDS011;5175;42.606;23.388;2023-06-22T09:16:12;11.23;;;9.93;;
10260;SDS011;5175;42.606;23.388;2023-06-22T09:18:39;12.38;;;11.35;;
10260;SDS011;5175;42.606;23.388;2023-06-22T09:21:07;10.80;;;9.85;;
10260;SDS011;5175;42.606;23.388;2023-06-22T09:23:33;9.85;;;8.95;;
10260;SDS011;5175;42.606;23.388;2023-06-22T09:26:00;11.05;;;10.15;;
10260;SDS011;5175;42.606;23.388;2023-06-22T09:28:30;12.13;;;10.90;;
10260;SDS011;5175;42.606;23.388;2023-06-22T09:30:58;11.13;;;10.20;;
10260;SDS011;5175;42.606;23.388;2023-06-22T09:33:25;16.13;;;9.90;;
10260;SDS011;5175;42.606;23.388;2023-06-22T09:35:52;10.75;;;9.60;;
10260;SDS011;5175;42.606;23.388;2023-06-22T09:38:19;10.35;;;9.55;;
10260;SDS011;5175;42.606;23.388;2023-06-22T09:40:46;11.40;;;10.02;;
10260;SDS011;5175;42.606;23.388;2023-06-22T09:43:12;11.90;;;10.90;;
10260;SDS011;5175;42.606;23.388;2023-06-22T09:45:40;11.40;;;10.50;;
10260;SDS011;5175;42.606;23.388;2023-06-22T09:48:07;9.60;;;8.80;;
10260;SDS011;5175;42.606;23.388;2023-06-22T09:50:35;9.77;;;9.05;;
10260;SDS011;5175;42.606;23.388;2023-06-22T09:53:01;10.45;;;9.48;;
10260;SDS011;5175;42.606;23.388;2023-06-22T09:55:28;10.15;;;9.25;;
10260;SDS011;5175;42.606;23.388;2023-06-22T09:57:55;10.35;;;8.65;;
10260;SDS011;5175;42.606;23.388;2023-06-22T10:00:22;9.90;;;8.85;;
10260;SDS011;5175;42.606;23.388;2023-06-22T10:02:50;10.38;;;9.40;;
10260;SDS011;5175;42.606;23.388;2023-06-22T10:05:17;10.15;;;9.10;;
10260;SDS011;5175;42.606;23.388;2023-06-22T10:07:44;10.00;;;9.13;;
10260;SDS011;5175;42.606;23.388;2023-06-22T10:10:11;10.20;;;9.30;;
10260;SDS011;5175;42.606;23.388;2023-06-22T10:12:41;9.27;;;8.57;;
10260;SDS011;5175;42.606;23.388;2023-06-22T10:15:09;9.07;;;8.18;;
10260;SDS011;5175;42.606;23.388;2023-06-22T10:17:36;8.85;;;8.07;;
10260;SDS011;5175;42.606;23.388;2023-06-22T10:20:05;8.55;;;7.85;;
10260;SDS011;5175;42.606;23.388;2023-06-22T10:22:36;10.43;;;8.98;;
10260;SDS011;5175;42.606;23.388;2023-06-22T10:25:04;10.05;;;9.15;;
10260;SDS011;5175;42.606;23.388;2023-06-22T10:27:31;9.48;;;8.75;;
10260;SDS011;5175;42.606;23.388;2023-06-22T10:29:58;9.27;;;8.50;;
10260;SDS011;5175;42.606;23.388;2023-06-22T10:32:25;9.02;;;8.18;;
10260;SDS011;5175;42.606;23.388;2023-06-22T10:34:53;8.65;;;7.95;;
10260;SDS011;5175;42.606;23.388;2023-06-22T10:37:21;8.48;;;7.88;;
10260;SDS011;5175;42.606;23.388;2023-06-22T10:39:48;9.13;;;8.20;;
10260;SDS011;5175;42.606;23.388;2023-06-22T10:42:15;9.27;;;8.20;;
10260;SDS011;5175;42.606;23.388;2023-06-22T10:44:41;9.32;;;8.43;;
10260;SDS011;5175;42.606;23.388;2023-06-22T10:47:09;8.82;;;8.02;;
10260;SDS011;5175;42.606;23.388;2023-06-22T10:49:37;8.27;;;7.60;;
10260;SDS011;5175;42.606;23.388;2023-06-22T10:52:04;8.70;;;8.00;;
10260;SDS011;5175;42.606;23.388;2023-06-22T10:54:33;8.73;;;7.95;;
10260;SDS011;5175;42.606;23.388;2023-06-22T10:57:01;8.98;;;8.25;;
10260;SDS011;5175;42.606;23.388;2023-06-22T10:59:27;8.10;;;7.43;;
10260;SDS011;5175;42.606;23.388;2023-06-22T11:01:55;8.73;;;7.95;;
10260;SDS011;5175;42.606;23.388;2023-06-22T11:04:22;9.60;;;8.70;;
10260;SDS011;5175;42.606;23.388;2023-06-22T11:06:48;9.02;;;8.32;;
10260;SDS011;5175;42.606;23.388;2023-06-22T11:09:15;8.85;;;8.15;;
10260;SDS011;5175;42.606;23.388;2023-06-22T11:11:47;8.85;;;7.95;;
10260;SDS011;5175;42.606;23.388;2023-06-22T11:14:15;8.52;;;7.82;;
10260;SDS011;5175;42.606;23.388;2023-06-22T11:16:42;9.43;;;8.60;;
10260;SDS011;5175;42.606;23.388;2023-06-22T11:19:09;9.15;;;8.20;;
10260;SDS011;5175;42.606;23.388;2023-06-22T11:21:35;7.97;;;7.35;;
10260;SDS011;5175;42.606;23.388;2023-06-22T11:24:02;8.27;;;7.57;;
10260;SDS011;5175;42.606;23.388;2023-06-22T11:26:29;8.23;;;7.53;;
10260;SDS011;5175;42.606;23.388;2023-06-22T11:28:58;9.00;;;8.10;;
10260;SDS011;5175;42.606;23.388;2023-06-22T11:31:25;8.75;;;8.05;;
10260;SDS011;5175;42.606;23.388;2023-06-22T11:33:52;18.00;;;9.18;;
10260;SDS011;5175;42.606;23.388;2023-06-22T11:36:19;8.95;;;7.88;;
10260;SDS011;5175;42.606;23.388;2023-06-22T11:38:46;8.88;;;8.18;;
10260;SDS011;5175;42.606;23.388;2023-06-22T11:41:12;8.50;;;7.50;;
10260;SDS011;5175;42.606;23.388;2023-06-22T11:43:39;8.25;;;7.55;;
10260;SDS011;5175;42.606;23.388;2023-06-22T11:46:07;8.60;;;7.90;;
10260;SDS011;5175;42.606;23.388;2023-06-22T11:48:34;8.82;;;8.10;;
10260;SDS011;5175;42.606;23.388;2023-06-22T11:51:02;9.10;;;8.20;;
10260;SDS011;5175;42.606;23.388;2023-06-22T11:53:29;10.23;;;8.55;;
10260;SDS011;5175;42.606;23.388;2023-06-22T11:55:55;9.65;;;8.85;;
10260;SDS011;5175;42.606;23.388;2023-06-22T11:58:22;9.07;;;8.27;;
10260;SDS011;5175;42.606;23.388;2023-06-22T12:00:49;9.65;;;8.50;;
10260;SDS011;5175;42.606;23.388;2023-06-22T12:03:18;8.60;;;7.90;;
10260;SDS011;5175;42.606;23.388;2023-06-22T12:05:46;9.18;;;8.38;;
10260;SDS011;5175;42.606;23.388;2023-06-22T12:08:13;9.18;;;8.27;;
10260;SDS011;5175;42.606;23.388;2023-06-22T12:10:40;9.73;;;8.25;;
10260;SDS011;5175;42.606;23.388;2023-06-22T12:13:07;8.98;;;8.05;;
10260;SDS011;5175;42.606;23.388;2023-06-22T12:15:33;8.77;;;8.07;;
10260;SDS011;5175;42.606;23.388;2023-06-22T12:18:00;8.98;;;8.27;;
10260;SDS011;5175;42.606;23.388;2023-06-22T12:20:29;9.20;;;8.32;;
10260;SDS011;5175;42.606;23.388;2023-06-22T12:22:55;8.65;;;7.97;;
10260;SDS011;5175;42.606;23.388;2023-06-22T12:25:23;9.43;;;8.63;;
10260;SDS011;5175;42.606;23.388;2023-06-22T12:27:50;10.85;;;8.63;;
10260;SDS011;5175;42.606;23.388;2023-06-22T12:30:16;9.45;;;8.63;;
10260;SDS011;5175;42.606;23.388;2023-06-22T12:32:43;9.30;;;8.43;;
10260;SDS011;5175;42.606;23.388;2023-06-22T12:35:10;9.32;;;8.57;;
10260;SDS011;5175;42.606;23.388;2023-06-22T12:37:40;10.18;;;9.20;;
10260;SDS011;5175;42.606;23.388;2023-06-22T12:40:08;9.75;;;8.85;;
10260;SDS011;5175;42.606;23.388;2023-06-22T12:42:35;9.90;;;9.00;;
10260;SDS011;5175;42.606;23.388;2023-06-22T12:45:02;10.25;;;9.10;;
10260;SDS011;5175;42.606;23.388;2023-06-22T12:47:30;10.13;;;9.18;;
10260;SDS011;5175;42.606;23.388;2023-06-22T12:49:57;17.77;;;11.57;;
10260;SDS011;5175;42.606;23.388;2023-06-22T12:52:24;18.83;;;13.07;;
10260;SDS011;5175;42.606;23.388;2023-06-22T12:54:52;18.73;;;12.63;;
10260;SDS011;5175;42.606;23.388;2023-06-22T12:57:19;15.35;;;12.15;;
10260;SDS011;5175;42.606;23.388;2023-06-22T12:59:46;15.40;;;13.30;;
10260;SDS011;5175;42.606;23.388;2023-06-22T13:02:13;15.45;;;11.93;;
10260;SDS011;5175;42.606;23.388;2023-06-22T13:04:39;12.25;;;11.02;;
10260;SDS011;5175;42.606;23.388;2023-06-22T13:07:08;13.55;;;11.70;;
10260;SDS011;5175;42.606;23.388;2023-06-22T13:09:35;13.38;;;11.10;;
10260;SDS011;5175;42.606;23.388;2023-06-22T13:12:04;19.13;;;11.63;;
10260;SDS011;5175;42.606;23.388;2023-06-22T13:14:31;13.23;;;11.48;;
10260;SDS011;5175;42.606;23.388;2023-06-22T13:16:58;15.30;;;11.93;;
10260;SDS011;5175;42.606;23.388;2023-06-22T13:19:25;13.35;;;11.98;;
10260;SDS011;5175;42.606;23.388;2023-06-22T13:21:54;13.13;;;11.73;;
10260;SDS011;5175;42.606;23.388;2023-06-22T13:24:20;13.52;;;11.82;;
10260;SDS011;5175;42.606;23.388;2023-06-22T13:26:47;12.57;;;11.27;;
10260;SDS011;5175;42.606;23.388;2023-06-22T13:29:15;12.75;;;11.02;;
10260;SDS011;5175;42.606;23.388;2023-06-22T13:31:42;13.38;;;11.73;;
10260;SDS011;5175;42.606;23.388;2023-06-22T13:34:09;12.35;;;11.13;;
10260;SDS011;5175;42.606;23.388;2023-06-22T13:36:35;13.05;;;11.75;;
10260;SDS011;5175;42.606;23.388;2023-06-22T13:39:02;12.80;;;11.60;;
10260;SDS011;5175;42.606;23.388;2023-06-22T13:41:31;10.85;;;9.85;;
10260;SDS011;5175;42.606;23.388;2023-06-22T13:43:58;12.18;;;11.02;;
10260;SDS011;5175;42.606;23.388;2023-06-22T13:46:26;11.82;;;10.63;;
10260;SDS011;5175;42.606;23.388;2023-06-22T13:48:53;11.73;;;10.52;;
10260;SDS011;5175;42.606;23.388;2023-06-22T13:51:19;12.40;;;11.20;;
10260;SDS011;5175;42.606;23.388;2023-06-22T13:53:46;13.10;;;11.80;;
10260;SDS011;5175;42.606;23.388;2023-06-22T13:56:13;14.13;;;12.82;;
10260;SDS011;5175;42.606;23.388;2023-06-22T13:58:39;13.60;;;12.25;;
10260;SDS011;5175;42.606;23.388;2023-06-22T14:01:08;13.52;;;11.65;;
10260;SDS011;5175;42.606;23.388;2023-06-22T14:03:36;13.00;;;11.77;;
10260;SDS011;5175;42.606;23.388;2023-06-22T14:06:02;12.85;;;11.57;;
10260;SDS011;5175;42.606;23.388;2023-06-22T14:08:29;12.20;;;11.00;;
10260;SDS011;5175;42.606;23.388;2023-06-22T14:10:56;12.10;;;11.10;;
10260;SDS011;5175;42.606;23.388;2023-06-22T14:13:23;12.90;;;11.40;;
10260;SDS011;5175;42.606;23.388;2023-06-22T14:15:49;12.35;;;11.25;;
10260;SDS011;5175;42.606;23.388;2023-06-22T14:18:19;14.18;;;12.73;;
10260;SDS011;5175;42.606;23.388;2023-06-22T14:20:48;16.75;;;13.35;;
10260;SDS011;5175;42.606;23.388;2023-06-22T14:23:15;16.58;;;15.00;;
10260;SDS011;5175;42.606;23.388;2023-06-22T14:25:42;14.88;;;13.38;;
10260;SDS011;5175;42.606;23.388;2023-06-22T14:28:09;14.75;;;13.35;;
10260;SDS011;5175;42.606;23.388;2023-06-22T14:30:35;15.27;;;13.77;;
10260;SDS011;5175;42.606;23.388;2023-06-22T14:33:02;15.02;;;13.60;;